Time;durP1;ratioP1;P1;durP2;ratioP2;P2;SDS_P1;SDS_P2;PMS_P1;PMS_P2;Temp;Humidity;BMP_temperature;BMP_pressure;BME280_temperature;BME280_humidity;BME280_pressure;Samples;Min_cycle;Max_cycle;Signal;HPM_P1;HPM_P2
2021/08/19 00:01:40;;;;;;;8.48;3.60;;;;;;;13.20;100.00;93959.09;5072802;28;20210;-82
2021/08/19 00:04:07;;;;;;;8.77;3.15;;;;;;;13.24;100.00;93952.44;5073224;28;20198;-81
2021/08/19 00:06:34;;;;;;;4.68;2.92;;;;;;;13.28;100.00;93943.13;5073383;28;20210;-80
2021/08/19 00:09:00;;;;;;;7.95;3.28;;;;;;;13.35;100.00;93944.94;5072995;28;20202;-80
2021/08/19 00:11:27;;;;;;;7.07;3.03;;;;;;;13.38;100.00;93947.13;5072897;28;20203;-81
2021/08/19 00:13:54;;;;;;;5.00;2.85;;;;;;;13.35;100.00;93947.56;5073147;28;20194;-81
2021/08/19 00:16:22;;;;;;;4.32;2.60;;;;;;;13.36;100.00;93943.94;5072955;28;20195;-81
2021/08/19 00:18:48;;;;;;;4.68;2.63;;;;;;;13.43;100.00;93940.22;5073020;28;20680;-81
2021/08/19 00:21:15;;;;;;;5.65;2.88;;;;;;;13.43;100.00;93939.41;5073052;28;20206;-81
2021/08/19 00:23:41;;;;;;;6.47;2.80;;;;;;;13.45;100.00;93948.66;5074885;28;20205;-81
2021/08/19 00:26:08;;;;;;;5.45;2.53;;;;;;;13.49;100.00;93935.94;5073389;28;20206;-81
2021/08/19 00:28:34;;;;;;;6.90;2.78;;;;;;;13.49;100.00;93936.75;5073491;28;20203;-81
2021/08/19 00:31:01;;;;;;;4.78;2.80;;;;;;;13.49;100.00;93947.25;5073068;28;20230;-80
2021/08/19 00:33:29;;;;;;;5.20;3.05;;;;;;;13.50;100.00;93940.16;5072950;28;20207;-80
2021/08/19 00:35:56;;;;;;;4.20;2.50;;;;;;;13.55;100.00;93940.31;5072863;28;20198;-81
2021/08/19 00:38:23;;;;;;;3.90;2.70;;;;;;;13.56;100.00;93939.31;5072827;28;20199;-80
2021/08/19 00:40:49;;;;;;;4.40;2.75;;;;;;;13.56;100.00;93952.44;5072337;28;20438;-80
2021/08/19 00:43:16;;;;;;;3.72;2.40;;;;;;;13.55;100.00;93936.91;5072939;28;20289;-82
2021/08/19 00:45:42;;;;;;;8.43;2.75;;;;;;;13.48;100.00;93943.00;5072616;28;20257;-81
2021/08/19 00:48:09;;;;;;;5.05;2.50;;;;;;;13.48;100.00;93942.19;5072707;28;20202;-81
2021/08/19 00:50:37;;;;;;;4.07;2.10;;;;;;;13.45;100.00;93946.03;5072604;28;20230;-81
2021/08/19 00:53:04;;;;;;;4.00;2.38;;;;;;;13.46;100.00;93939.00;5072525;28;20653;-81
2021/08/19 00:55:31;;;;;;;4.68;2.88;;;;;;;13.45;100.00;93934.75;5071577;28;20253;-81
2021/08/19 00:57:58;;;;;;;3.75;2.42;;;;;;;13.49;100.00;93936.75;5072737;28;20207;-81
2021/08/19 01:00:25;;;;;;;3.92;2.65;;;;;;;13.52;100.00;93935.50;5072268;28;20202;-81
2021/08/19 01:02:54;;;;;;;4.32;2.28;;;;;;;13.56;100.00;93938.53;5072529;28;20201;-81
2021/08/19 01:05:23;;;;;;;5.00;2.65;;;;;;;13.58;100.00;93939.09;5072452;28;20543;-81
2021/08/19 01:07:51;;;;;;;3.58;2.40;;;;;;;13.59;100.00;93936.28;5072458;28;20201;-81
2021/08/19 01:10:17;;;;;;;2.95;2.00;;;;;;;13.66;100.00;93942.25;5072572;28;20226;-81
2021/08/19 01:12:45;;;;;;;3.92;2.40;;;;;;;13.71;100.00;93932.94;5071285;28;20202;-80
2021/08/19 01:15:13;;;;;;;4.57;2.55;;;;;;;13.74;100.00;93928.06;5075393;28;20446;-80
2021/08/19 01:17:39;;;;;;;3.53;2.40;;;;;;;13.74;100.00;93932.50;5076207;28;20229;-82
2021/08/19 01:20:08;;;;;;;6.78;2.45;;;;;;;13.77;100.00;93932.06;5076206;28;20199;-83
2021/08/19 01:22:35;;;;;;;4.78;2.10;;;;;;;13.81;100.00;93936.66;5076444;28;20205;-82
2021/08/19 01:25:05;;;;;;;4.43;1.98;;;;;;;13.83;100.00;93931.22;5076732;28;20209;-81
2021/08/19 01:27:33;;;;;;;4.15;1.90;;;;;;;13.84;100.00;93932.81;5076061;28;20675;-81
2021/08/19 01:30:00;;;;;;;3.90;2.22;;;;;;;13.88;100.00;93934.78;5076083;28;20253;-81
2021/08/19 01:32:27;;;;;;;3.08;2.10;;;;;;;13.94;100.00;93932.31;5075937;28;20204;-81
2021/08/19 01:34:54;;;;;;;3.45;2.17;;;;;;;13.93;100.00;93934.13;5075835;28;20622;-80
2021/08/19 01:37:21;;;;;;;2.63;1.80;;;;;;;13.90;100.00;93936.41;5075930;28;20203;-81
2021/08/19 01:39:47;;;;;;;4.13;2.03;;;;;;;13.87;100.00;93940.25;5075932;28;20202;-82
2021/08/19 01:42:14;;;;;;;3.13;2.33;;;;;;;13.86;100.00;93936.03;5075836;28;20638;-81
2021/08/19 01:44:41;;;;;;;5.50;2.35;;;;;;;13.89;100.00;93938.22;5075603;28;20210;-81
2021/08/19 01:47:09;;;;;;;5.72;2.28;;;;;;;13.83;100.00;93936.47;5075523;28;20203;-80
2021/08/19 01:49:38;;;;;;;5.45;2.30;;;;;;;13.77;100.00;93937.31;5075478;28;20203;-80
2021/08/19 01:52:11;;;;;;;3.88;1.92;;;;;;;13.77;100.00;93934.69;5075634;28;20256;-83
2021/08/19 01:54:40;;;;;;;4.72;2.47;;;;;;;13.73;100.00;93936.16;5075810;28;20202;-82
2021/08/19 02:00:29;;;;;;;5.68;2.13;;;;;;;13.58;100.00;93934.66;5070665;28;20286;-82
2021/08/19 02:02:56;;;;;;;4.13;2.63;;;;;;;13.49;100.00;93930.72;5075276;28;20262;-80
2021/08/19 02:05:22;;;;;;;5.05;2.38;;;;;;;13.43;100.00;93937.59;5075443;28;20210;-81
2021/08/19 02:07:49;;;;;;;4.97;2.90;;;;;;;13.44;100.00;93935.75;5075344;28;20665;-80
2021/08/19 02:10:15;;;;;;;6.43;2.55;;;;;;;13.41;100.00;93934.38;5075155;28;20226;-80
2021/08/19 02:12:42;;;;;;;5.03;2.90;;;;;;;13.44;100.00;93938.38;5073281;28;20434;-81
2021/08/19 02:15:09;;;;;;;6.03;2.83;;;;;;;13.43;100.00;93942.03;5075130;28;20210;-80
2021/08/19 02:17:37;;;;;;;4.20;2.20;;;;;;;13.43;100.00;93932.34;5074673;28;20210;-81
2021/08/19 02:20:05;;;;;;;3.97;2.40;;;;;;;13.41;100.00;93933.59;5075206;28;20210;-81
2021/08/19 02:22:32;;;;;;;4.28;2.63;;;;;;;13.40;100.00;93931.97;5074951;28;20206;-80
2021/08/19 02:24:58;;;;;;;8.07;2.50;;;;;;;13.36;100.00;93931.59;5074703;28;20213;-81
2021/08/19 02:27:26;;;;;;;5.70;2.20;;;;;;;13.33;100.00;93932.81;5073644;28;20230;-81
2021/08/19 02:29:52;;;;;;;3.50;1.95;;;;;;;13.29;100.00;93931.63;5074752;28;20241;-80
2021/08/19 02:32:19;;;;;;;2.70;1.90;;;;;;;13.20;100.00;93927.66;5074902;28;20214;-82
2021/08/19 02:34:47;;;;;;;2.88;1.77;;;;;;;13.14;100.00;93924.06;5074945;28;20209;-81
2021/08/19 02:37:13;;;;;;;2.33;1.50;;;;;;;13.13;100.00;93914.59;5074703;28;20658;-81
2021/08/19 02:39:40;;;;;;;2.38;1.40;;;;;;;13.11;100.00;93915.81;5074982;28;20581;-81
2021/08/19 02:42:08;;;;;;;2.55;1.38;;;;;;;13.07;100.00;93914.63;5074645;28;20597;-81
2021/08/19 02:44:34;;;;;;;2.20;1.20;;;;;;;13.08;100.00;93917.03;5074591;28;20206;-82
2021/08/19 02:47:01;;;;;;;1.65;1.23;;;;;;;13.06;100.00;93918.28;5074360;28;20709;-81
2021/08/19 02:49:28;;;;;;;4.00;1.58;;;;;;;13.03;100.00;93913.47;5074601;28;20199;-81
2021/08/19 02:51:56;;;;;;;2.70;1.45;;;;;;;13.07;100.00;93912.84;5074501;28;20230;-82
2021/08/19 02:54:22;;;;;;;3.40;1.33;;;;;;;13.17;100.00;93901.84;5074432;28;20654;-81
2021/08/19 02:56:48;;;;;;;2.33;1.40;;;;;;;13.15;100.00;93909.13;5073892;28;20202;-81
2021/08/19 02:59:15;;;;;;;3.72;1.20;;;;;;;13.16;100.00;93900.25;5074211;28;20203;-82
2021/08/19 03:01:41;;;;;;;1.35;1.05;;;;;;;13.16;100.00;93905.50;5074345;28;20214;-81
2021/08/19 03:04:08;;;;;;;2.60;1.38;;;;;;;13.16;100.00;93899.47;5075245;28;20209;-83
2021/08/19 03:06:35;;;;;;;1.33;1.15;;;;;;;13.14;100.00;93900.47;5074227;28;20202;-81
2021/08/19 03:09:03;;;;;;;1.35;1.20;;;;;;;13.16;100.00;93905.50;5074813;28;20205;-80
2021/08/19 03:11:29;;;;;;;3.67;1.30;;;;;;;13.13;100.00;93901.47;5074182;28;20238;-81
2021/08/19 03:13:59;;;;;;;5.25;1.60;;;;;;;13.11;100.00;93907.97;5074018;28;20745;-82
2021/08/19 03:16:26;;;;;;;2.15;1.30;;;;;;;13.10;100.00;93906.34;5073977;28;20719;-81
2021/08/19 03:18:52;;;;;;;3.95;1.80;;;;;;;13.08;100.00;93903.13;5074029;28;20194;-82
2021/08/19 03:21:20;;;;;;;1.80;1.63;;;;;;;13.10;100.00;93901.09;5073967;28;20205;-81
2021/08/19 03:23:46;;;;;;;2.67;1.63;;;;;;;13.14;100.00;93904.91;5073957;28;20210;-81
2021/08/19 03:26:15;;;;;;;2.28;1.50;;;;;;;13.13;100.00;93905.94;5073611;28;20665;-82
2021/08/19 03:28:42;;;;;;;1.55;1.25;;;;;;;13.12;100.00;93899.06;5073940;28;20202;-81
2021/08/19 03:31:08;;;;;;;2.45;1.50;;;;;;;13.11;100.00;93897.47;5073649;28;20241;-81
2021/08/19 03:33:37;;;;;;;2.78;1.30;;;;;;;13.12;100.00;93899.88;5073549;28;20230;-81
2021/08/19 03:36:04;;;;;;;5.70;1.63;;;;;;;13.13;100.00;93895.44;5073013;28;20230;-82
2021/08/19 03:38:30;;;;;;;3.83;1.40;;;;;;;13.12;100.00;93897.28;5073530;28;20198;-83
2021/08/19 03:40:57;;;;;;;6.45;1.88;;;;;;;13.12;100.00;93892.03;5073379;28;20195;-81
2021/08/19 03:43:25;;;;;;;2.15;1.60;;;;;;;13.15;100.00;93898.66;5072408;28;20430;-82
2021/08/19 03:45:51;;;;;;;3.92;1.58;;;;;;;13.14;100.00;93900.47;5073342;28;20227;-81
2021/08/19 03:48:18;;;;;;;3.40;1.67;;;;;;;13.13;100.00;93903.31;5073942;28;20563;-81
2021/08/19 03:50:44;;;;;;;2.08;1.33;;;;;;;13.13;100.00;93895.44;5073344;28;20226;-80
2021/08/19 03:53:11;;;;;;;5.30;1.20;;;;;;;13.11;100.00;93898.28;5073222;28;20194;-81
2021/08/19 03:55:37;;;;;;;1.33;1.20;;;;;;;13.10;100.00;93896.66;5073014;28;20234;-81
2021/08/19 03:58:04;;;;;;;7.07;1.52;;;;;;;13.09;100.00;93894.25;5075663;28;20206;-82
2021/08/19 04:00:32;;;;;;;2.20;1.50;;;;;;;13.07;100.00;93899.72;5074259;28;20211;-80
2021/08/19 04:02:58;;;;;;;2.97;1.67;;;;;;;13.10;100.00;93895.84;5073347;28;20654;-80
2021/08/19 04:05:25;;;;;;;1.55;1.20;;;;;;;13.10;100.00;93903.72;5072851;28;20203;-80
2021/08/19 04:07:51;;;;;;;2.40;1.58;;;;;;;13.09;100.00;93896.88;5072466;28;20676;-81
2021/08/19 04:10:20;;;;;;;3.75;1.60;;;;;;;13.10;100.00;93901.09;5073015;28;20198;-81
2021/08/19 04:12:47;;;;;;;3.45;1.60;;;;;;;13.12;100.00;93901.69;5072898;28;20563;-81
2021/08/19 04:15:13;;;;;;;1.35;1.10;;;;;;;13.10;100.00;93896.66;5073116;28;20206;-81
2021/08/19 04:17:41;;;;;;;2.38;1.30;;;;;;;13.13;100.00;93901.47;5073329;28;20199;-82
2021/08/19 04:20:09;;;;;;;1.42;1.20;;;;;;;13.09;100.00;93905.56;5073566;28;20199;-81
2021/08/19 04:22:35;;;;;;;6.07;1.48;;;;;;;13.11;100.00;93902.72;5074094;28;20202;-80
2021/08/19 04:25:02;;;;;;;2.88;1.30;;;;;;;13.10;100.00;93899.28;5072042;28;20198;-80
2021/08/19 04:27:29;;;;;;;4.55;1.50;;;;;;;13.10;100.00;93894.03;5073053;28;20202;-81
2021/08/19 04:29:55;;;;;;;3.00;1.40;;;;;;;13.15;100.00;93898.66;5072074;28;20434;-80
2021/08/19 04:32:22;;;;;;;3.78;1.33;;;;;;;13.12;100.00;93901.69;5072970;28;20230;-81
2021/08/19 04:35:03;;;;;;;3.17;1.30;;;;;;;13.10;100.00;93899.28;5072741;28;20214;-83
2021/08/19 04:37:29;;;;;;;2.53;1.13;;;;;;;13.10;100.00;93901.91;5072717;28;20260;-80
2021/08/19 04:39:56;;;;;;;3.00;1.33;;;;;;;13.13;100.00;93901.47;5072902;28;20202;-80
2021/08/19 04:42:23;;;;;;;1.48;0.93;;;;;;;13.13;100.00;93900.69;5072893;28;20203;-80
2021/08/19 04:44:50;;;;;;;2.35;1.48;;;;;;;13.18;100.00;93903.47;5072842;28;20213;-81
2021/08/19 04:47:16;;;;;;;2.83;1.30;;;;;;;13.19;100.00;93907.69;5073349;28;20202;-81
2021/08/19 04:49:43;;;;;;;2.53;1.02;;;;;;;13.21;100.00;93908.28;5076317;28;20198;-81
2021/08/19 04:52:10;;;;;;;4.07;1.30;;;;;;;13.25;100.00;93914.69;5076740;28;20230;-80
2021/08/19 04:54:37;;;;;;;1.65;1.30;;;;;;;13.32;100.00;93910.25;5076681;28;20684;-81
2021/08/19 04:57:04;;;;;;;2.80;0.98;;;;;;;13.34;100.00;93915.28;5076683;28;20199;-79
2021/08/19 04:59:30;;;;;;;1.13;1.00;;;;;;;13.31;100.00;93913.84;5076697;28;20206;-80
2021/08/19 05:01:57;;;;;;;2.55;1.48;;;;;;;13.37;100.00;93914.03;5076486;28;20657;-81
2021/08/19 05:04:23;;;;;;;1.80;1.10;;;;;;;13.37;100.00;93914.84;5076557;28;20199;-81
2021/08/19 05:06:50;;;;;;;3.70;1.10;;;;;;;13.42;100.00;93916.81;5075238;28;20209;-80
2021/08/19 05:09:17;;;;;;;1.95;1.20;;;;;;;13.46;100.00;93916.19;5076459;28;20199;-81
2021/08/19 05:11:44;;;;;;;3.28;1.33;;;;;;;13.45;100.00;93921.66;5076355;28;20237;-80
2021/08/19 05:14:10;;;;;;;3.40;1.40;;;;;;;13.49;100.00;93920.22;5075489;28;20446;-82
2021/08/19 05:16:37;;;;;;;3.38;1.52;;;;;;;13.49;100.00;93920.22;5076119;28;20670;-80
2021/08/19 05:19:03;;;;;;;4.40;1.45;;;;;;;13.48;100.00;93918.59;5076274;28;20202;-80
2021/08/19 05:21:30;;;;;;;1.85;1.20;;;;;;;13.53;100.00;93920.59;5076374;28;20202;-80
2021/08/19 05:23:56;;;;;;;6.32;1.20;;;;;;;13.57;100.00;93917.28;5076330;28;20557;-81
2021/08/19 05:26:24;;;;;;;2.20;1.15;;;;;;;13.61;100.00;93913.25;5076156;28;20202;-81
2021/08/19 05:28:50;;;;;;;1.80;1.45;;;;;;;13.63;100.00;93908.56;5076117;28;20199;-82
2021/08/19 05:31:17;;;;;;;1.80;1.30;;;;;;;13.69;100.00;93912.97;5075941;28;20234;-82
2021/08/19 05:33:44;;;;;;;1.58;1.20;;;;;;;13.76;100.00;93912.91;5076116;28;20203;-81
2021/08/19 05:36:12;;;;;;;3.97;1.30;;;;;;;13.77;100.00;93911.06;5075997;28;20207;-80
2021/08/19 05:38:39;;;;;;;2.15;1.40;;;;;;;13.95;100.00;93910.28;5075923;28;20203;-81
2021/08/19 05:41:06;;;;;;;5.32;1.30;;;;;;;13.91;100.00;93906.50;5075736;28;20213;-80
2021/08/19 05:43:34;;;;;;;2.40;1.45;;;;;;;13.87;100.00;93912.19;5075780;28;20202;-79
2021/08/19 05:46:01;;;;;;;1.98;1.40;;;;;;;13.93;100.00;93905.25;5075439;28;20231;-80
2021/08/19 05:48:27;;;;;;;2.85;1.55;;;;;;;13.99;100.00;93901.78;5075609;28;20199;-80
2021/08/19 05:50:54;;;;;;;2.15;1.20;;;;;;;14.10;100.00;93909.94;5075639;28;20564;-79
2021/08/19 05:53:20;;;;;;;4.35;1.45;;;;;;;14.13;100.00;93910.31;5075553;28;20657;-80
2021/08/19 05:55:47;;;;;;;2.15;1.30;;;;;;;14.16;100.00;93912.50;5075664;28;20203;-80
2021/08/19 05:58:14;;;;;;;2.40;1.05;;;;;;;14.33;100.00;93902.19;5075379;28;20199;-81
2021/08/19 06:00:46;;;;;;;2.85;1.70;;;;;;;14.33;100.00;93899.56;5075250;28;20252;-81
2021/08/19 06:03:13;;;;;;;2.78;1.42;;;;;;;14.40;100.00;93900.28;5075665;28;20207;-80
2021/08/19 06:05:39;;;;;;;3.47;1.23;;;;;;;14.53;100.00;93904.56;5075514;28;20206;-80
2021/08/19 06:08:06;;;;;;;1.52;1.23;;;;;;;14.71;100.00;93910.88;5075255;28;20553;-81
2021/08/19 06:10:32;;;;;;;1.15;0.93;;;;;;;14.88;100.00;93918.94;5075343;28;20234;-80
2021/08/19 06:12:59;;;;;;;2.47;1.30;;;;;;;14.88;100.00;93918.94;5075073;28;20237;-80
2021/08/19 06:15:25;;;;;;;1.65;1.25;;;;;;;15.08;100.00;93916.81;5075416;28;20199;-80
2021/08/19 06:17:53;;;;;;;1.10;0.95;;;;;;;15.42;100.00;93916.31;5075287;28;20199;-81
2021/08/19 06:20:20;;;;;;;3.53;1.30;;;;;;;15.55;100.00;93918.72;5075196;28;20205;-81
2021/08/19 06:22:46;;;;;;;1.17;1.05;;;;;;;15.84;100.00;93924.16;5075068;28;20199;-82
2021/08/19 06:25:13;;;;;;;1.38;1.17;;;;;;;15.97;100.00;93918.66;5075092;28;20199;-81
2021/08/19 06:27:40;;;;;;;3.42;1.10;;;;;;;15.99;100.00;93934.25;5075117;28;20194;-80
2021/08/19 06:30:07;;;;;;;1.52;1.02;;;;;;;16.11;100.00;93929.75;5075073;28;20229;-82
2021/08/19 06:32:34;;;;;;;1.50;0.80;;;;;;;15.88;100.00;93930.56;5074981;28;20230;-82
2021/08/19 06:35:01;;;;;;;1.48;0.95;;;;;;;15.96;100.00;93932.06;5074749;28;20665;-80
2021/08/19 06:37:28;;;;;;;3.58;1.20;;;;;;;15.64;100.00;93930.53;5074787;28;20585;-82
2021/08/19 06:39:55;;;;;;;4.45;1.02;;;;;;;15.86;100.00;93933.44;5074694;28;20202;-82
2021/08/19 06:42:21;;;;;;;1.63;1.00;;;;;;;15.85;100.00;93926.56;5074987;28;20198;-80
2021/08/19 06:44:47;;;;;;;1.90;0.98;;;;;;;15.79;100.00;93927.47;5074574;28;20199;-81
2021/08/19 06:47:14;;;;;;;4.97;0.80;;;;;;;15.89;100.00;93924.28;5074910;28;20195;-82
2021/08/19 06:49:41;;;;;;;2.00;1.02;;;;;;;16.02;100.00;93926.69;5074615;28;20210;-81
2021/08/19 06:52:09;;;;;;;1.45;0.80;;;;;;;16.34;100.00;93922.88;5074808;28;20586;-81
2021/08/19 06:54:36;;;;;;;1.73;0.80;;;;;;;16.94;100.00;93921.69;5074505;28;20202;-80
2021/08/19 06:57:03;;;;;;;1.30;0.60;;;;;;;17.06;100.00;93911.84;5074494;28;20281;-80
2021/08/19 06:59:32;;;;;;;1.75;0.73;;;;;;;17.45;100.00;93911.19;5074513;28;20622;-80
2021/08/19 07:01:58;;;;;;;1.08;0.70;;;;;;;17.67;100.00;93909.44;5074658;28;20207;-81
2021/08/19 07:04:25;;;;;;;1.15;0.70;;;;;;;17.87;100.00;93902.84;5074273;28;20199;-81
2021/08/19 07:06:52;;;;;;;0.65;0.57;;;;;;;17.94;96.87;93911.44;5074239;28;20665;-81
2021/08/19 07:09:20;;;;;;;2.03;0.80;;;;;;;17.99;95.59;93903.56;5073985;28;20209;-82
2021/08/19 07:11:47;;;;;;;1.08;0.70;;;;;;;17.63;94.39;93907.50;5073165;28;20230;-81
2021/08/19 07:14:14;;;;;;;1.20;0.80;;;;;;;17.49;95.76;93907.03;5074146;28;20209;-80
2021/08/19 07:16:40;;;;;;;2.67;0.65;;;;;;;17.17;95.25;93903.09;5074016;28;20203;-80
2021/08/19 07:19:07;;;;;;;1.88;0.70;;;;;;;16.86;98.24;93908.88;5074008;28;20282;-81
2021/08/19 07:21:36;;;;;;;0.88;0.55;;;;;;;16.83;96.10;93902.97;5073748;28;20202;-80
2021/08/19 07:24:02;;;;;;;3.05;0.60;;;;;;;16.82;95.48;93901.38;5073875;28;20210;-80
2021/08/19 07:26:30;;;;;;;1.75;0.50;;;;;;;16.64;99.68;93907.63;5073648;28;20561;-81
2021/08/19 07:28:57;;;;;;;0.65;0.40;;;;;;;16.48;100.00;93907.59;5073826;28;20210;-81
2021/08/19 07:31:24;;;;;;;1.60;0.80;;;;;;;16.87;100.00;93906.00;5073023;28;20844;-80
2021/08/19 07:33:50;;;;;;;0.60;0.57;;;;;;;17.33;97.20;93908.63;5073685;28;20206;-81
2021/08/19 07:36:17;;;;;;;0.82;0.50;;;;;;;17.41;91.84;93910.06;5073434;28;20203;-81
2021/08/19 07:38:44;;;;;;;1.25;0.50;;;;;;;17.56;91.07;93905.81;5073444;28;20717;-81
2021/08/19 07:41:11;;;;;;;1.00;0.75;;;;;;;17.82;92.66;93910.69;5073605;28;20203;-81
2021/08/19 07:43:39;;;;;;;0.43;0.43;;;;;;;18.08;89.53;93910.03;5073499;28;20232;-81
2021/08/19 07:46:06;;;;;;;0.43;0.43;;;;;;;18.43;89.68;93911.53;5073316;28;20237;-81
2021/08/19 07:48:32;;;;;;;1.70;0.40;;;;;;;18.55;91.11;93910.63;5073389;28;20199;-80
2021/08/19 07:50:59;;;;;;;1.25;0.50;;;;;;;19.17;83.46;93910.25;5073184;28;20203;-81
2021/08/19 07:53:25;;;;;;;0.73;0.40;;;;;;;19.42;78.62;93901.75;5073964;28;20321;-81
2021/08/19 07:55:52;;;;;;;0.35;0.30;;;;;;;19.09;80.00;93900.13;5073744;28;20203;-80
2021/08/19 07:58:18;;;;;;;3.65;0.32;;;;;;;19.45;82.14;93904.94;5072289;28;20199;-80
2021/08/19 08:00:46;;;;;;;0.30;0.30;;;;;;;19.68;77.84;93901.16;5073260;28;20210;-81
2021/08/19 08:03:13;;;;;;;0.30;0.30;;;;;;;19.09;74.63;93901.97;5073363;28;20198;-81
2021/08/19 08:05:39;;;;;;;0.50;0.30;;;;;;;18.85;74.58;93905.72;5072610;28;20430;-82
2021/08/19 08:08:09;;;;;;;0.32;0.30;;;;;;;18.98;76.82;93903.72;5074000;28;20203;-81
2021/08/19 08:10:38;;;;;;;0.35;0.30;;;;;;;18.76;79.21;93909.03;5073585;28;20199;-81
2021/08/19 08:13:05;;;;;;;8.88;0.50;;;;;;;19.19;83.76;93913.44;5073950;28;20321;-81
2021/08/19 08:15:31;;;;;;;0.70;0.40;;;;;;;19.28;78.45;93911.16;5075337;28;20205;-82
2021/08/19 08:17:59;;;;;;;3.45;0.50;;;;;;;19.10;78.52;93907.03;5076929;28;20207;-80
2021/08/19 08:20:30;;;;;;;1.90;0.50;;;;;;;18.37;80.61;93922.28;5073672;28;20199;-81
2021/08/19 08:22:57;;;;;;;0.30;0.22;;;;;;;18.07;76.03;93911.09;5075145;28;20600;-80
2021/08/19 08:25:23;;;;;;;0.65;0.40;;;;;;;18.20;78.69;93920.50;5073424;28;20199;-81
2021/08/19 08:27:59;;;;;;;0.30;0.22;;;;;;;18.80;75.35;93921.50;5073759;28;20225;-81
2021/08/19 08:30:26;;;;;;;2.10;0.57;;;;;;;19.21;75.03;93919.28;5076500;28;20202;-80
2021/08/19 08:32:53;;;;;;;0.32;0.30;;;;;;;18.89;75.46;93924.53;5075201;28;20226;-80
2021/08/19 08:35:20;;;;;;;0.40;0.40;;;;;;;18.56;76.35;93920.16;5074911;28;20198;-81
2021/08/19 08:37:47;;;;;;;1.42;0.40;;;;;;;18.80;77.50;93921.50;5075092;28;20260;-81
2021/08/19 08:40:16;;;;;;;0.77;0.38;;;;;;;18.67;77.69;93921.88;5073346;28;20203;-81
2021/08/19 08:42:43;;;;;;;0.95;0.55;;;;;;;18.42;79.88;93917.88;5073549;28;20203;-80
2021/08/19 08:45:10;;;;;;;1.63;0.50;;;;;;;18.41;80.14;93924.22;5075541;28;20784;-81
2021/08/19 08:47:39;;;;;;;2.22;0.43;;;;;;;18.31;83.33;93924.09;5074263;28;20202;-82
2021/08/19 08:50:06;;;;;;;1.00;0.57;;;;;;;19.00;78.83;93920.97;5077427;28;20209;-81
2021/08/19 08:52:35;;;;;;;1.13;0.50;;;;;;;19.43;79.84;93913.13;5075854;28;20226;-82
2021/08/19 08:55:02;;;;;;;0.88;0.52;;;;;;;18.70;75.22;93924.00;5076243;28;20198;-81
2021/08/19 08:57:33;;;;;;;0.75;0.60;;;;;;;18.88;77.30;93932.72;5077240;28;20666;-82
2021/08/19 09:00:00;;;;;;;1.02;0.68;;;;;;;18.92;77.42;93934.63;5074187;28;20277;-80
2021/08/19 09:02:33;;;;;;;1.75;0.70;;;;;;;18.62;76.94;93940.34;5073793;28;20434;-81
2021/08/19 09:05:20;;;;;;;2.05;0.63;;;;;;;18.44;81.25;93934.28;5076286;28;20226;-82
2021/08/19 09:07:53;;;;;;;1.60;0.80;;;;;;;18.80;79.03;93934.72;5076049;28;20218;-81
2021/08/19 09:10:28;;;;;;;1.00;0.47;;;;;;;18.91;77.32;93932.22;5073940;28;20202;-80
2021/08/19 09:13:05;;;;;;;1.02;0.70;;;;;;;18.89;80.87;93931.69;5074812;28;20620;-81
2021/08/19 09:15:35;;;;;;;2.05;0.80;;;;;;;19.13;76.32;93919.75;5073140;28;20202;-80
2021/08/19 09:18:02;;;;;;;1.35;0.70;;;;;;;19.12;75.11;93933.22;5074084;28;20207;-81
2021/08/19 09:20:36;;;;;;;2.08;0.82;;;;;;;18.95;77.64;93931.50;5071681;28;20763;-81
2021/08/19 09:23:10;;;;;;;0.88;0.70;;;;;;;19.26;80.74;93928.34;5073659;28;20210;-81
2021/08/19 09:25:39;;;;;;;1.05;0.80;;;;;;;19.22;74.92;93928.03;5075326;28;20668;-80
2021/08/19 09:28:14;;;;;;;0.88;0.60;;;;;;;19.50;73.92;93924.34;5076523;28;20203;-82
2021/08/19 09:30:43;;;;;;;1.13;0.80;;;;;;;19.59;74.48;93917.50;5074988;28;20206;-81
2021/08/19 09:33:10;;;;;;;3.28;0.80;;;;;;;18.86;75.13;93917.88;5072922;28;20233;-80
2021/08/19 09:35:41;;;;;;;1.83;0.70;;;;;;;18.45;77.46;93919.22;5077087;28;20301;-82
2021/08/19 09:38:19;;;;;;;1.67;0.73;;;;;;;18.48;78.47;93918.72;5078242;28;20632;-81
2021/08/19 09:41:01;;;;;;;0.80;0.68;;;;;;;18.76;83.79;93914.31;5080666;28;20202;-82
2021/08/19 09:43:45;;;;;;;3.10;0.90;;;;;;;18.51;79.37;93915.59;5078366;28;20203;-82
2021/08/19 09:46:16;;;;;;;3.42;0.70;;;;;;;18.89;79.54;93911.31;5077928;28;20231;-82
2021/08/19 09:48:46;;;;;;;1.55;0.85;;;;;;;19.32;78.34;93909.59;5079817;28;20210;-82
2021/08/19 09:51:16;;;;;;;1.33;0.70;;;;;;;19.44;78.54;93904.16;5077819;28;20881;-81
2021/08/19 09:53:52;;;;;;;1.27;0.70;;;;;;;19.40;73.66;93908.31;5077011;28;20442;-81
2021/08/19 09:56:36;;;;;;;1.88;0.85;;;;;;;19.49;75.11;93906.84;5079373;28;20210;-81
2021/08/19 09:59:19;;;;;;;1.13;0.70;;;;;;;19.86;74.04;93910.56;5081523;28;20222;-80
2021/08/19 10:01:51;;;;;;;0.80;0.70;;;;;;;20.43;71.09;93909.03;5080954;28;20277;-80
2021/08/19 10:04:26;;;;;;;1.50;0.85;;;;;;;20.60;71.79;93903.53;5082466;28;20234;-81
2021/08/19 10:06:55;;;;;;;1.65;0.60;;;;;;;21.21;63.51;93905.59;5084283;28;20301;-80
2021/08/19 10:09:24;;;;;;;2.08;0.60;;;;;;;20.97;72.35;93902.63;5083753;28;20207;-81
2021/08/19 10:11:53;;;;;;;0.88;0.80;;;;;;;20.90;67.90;93905.53;5082066;28;20289;-81
2021/08/19 10:14:22;;;;;;;1.33;0.60;;;;;;;20.91;65.07;93898.38;5084945;28;20295;-81
2021/08/19 10:16:49;;;;;;;2.30;0.80;;;;;;;20.57;69.16;93906.69;5080525;28;20194;-80
2021/08/19 10:19:23;;;;;;;0.80;0.52;;;;;;;19.46;68.31;93903.91;5078384;28;20205;-81
2021/08/19 10:21:55;;;;;;;1.23;0.80;;;;;;;19.57;68.62;93898.41;5081390;28;20248;-81
2021/08/19 10:24:37;;;;;;;1.80;0.70;;;;;;;19.57;71.05;93902.94;5080978;28;20661;-81
2021/08/19 10:27:21;;;;;;;1.50;0.98;;;;;;;19.71;68.93;93895.34;5076795;28;20680;-80
2021/08/19 10:29:51;;;;;;;0.90;0.68;;;;;;;19.62;67.81;93900.31;5078054;28;20203;-80
2021/08/19 10:32:30;;;;;;;1.58;0.70;;;;;;;19.94;70.40;93897.66;5083125;28;20442;-80
2021/08/19 10:35:12;;;;;;;1.02;0.70;;;;;;;20.12;66.34;93890.34;5081107;28;20269;-78
2021/08/19 10:38:13;;;;;;;1.27;0.70;;;;;;;20.15;66.65;93889.81;5077896;28;20211;-80
2021/08/19 10:40:41;;;;;;;0.80;0.65;;;;;;;20.12;64.05;93890.34;4994313;28;20201;-79
2021/08/19 10:43:49;;;;;;;0.88;0.80;;;;;;;19.69;69.20;93895.59;5057879;28;20199;-80
2021/08/19 10:46:16;;;;;;;1.33;0.90;;;;;;;19.33;71.27;93882.06;5074283;28;20234;-80
2021/08/19 10:48:51;;;;;;;3.17;0.75;;;;;;;19.09;75.96;93897.47;5074643;28;20203;-80
2021/08/19 10:51:28;;;;;;;1.83;0.65;;;;;;;18.28;79.39;93896.28;5075244;28;20202;-80
2021/08/19 10:53:54;;;;;;;4.07;0.70;;;;;;;18.20;82.36;93902.03;5074758;28;20321;-80
2021/08/19 10:56:44;;;;;;;1.10;0.77;;;;;;;17.72;86.68;93906.06;5074419;28;20332;-81
2021/08/19 10:59:32;;;;;;;2.30;0.82;;;;;;;17.83;85.78;93909.66;5073077;28;20229;-80
2021/08/19 11:02:05;;;;;;;1.70;1.00;;;;;;;17.87;86.92;93900.22;5072725;28;20213;-81
2021/08/19 11:04:42;;;;;;;1.92;0.88;;;;;;;18.21;85.48;93898.31;5074212;28;20230;-80
2021/08/19 11:07:27;;;;;;;1.35;0.63;;;;;;;18.47;85.68;93901.28;5074394;28;20205;-80
2021/08/19 11:09:53;;;;;;;2.80;0.80;;;;;;;18.81;83.85;93904.56;5074253;28;20555;-81
2021/08/19 11:12:25;;;;;;;1.65;0.90;;;;;;;18.84;81.57;93908.59;5074016;28;20206;-80
2021/08/19 11:14:59;;;;;;;1.30;0.70;;;;;;;19.09;81.56;93909.91;5073604;28;20298;-80
2021/08/19 11:17:27;;;;;;;0.65;0.57;;;;;;;19.55;80.95;93905.81;5074046;28;20207;-81
2021/08/19 11:19:56;;;;;;;1.40;0.90;;;;;;;20.01;79.30;93912.53;5073499;28;20230;-80
2021/08/19 11:22:28;;;;;;;1.38;0.70;;;;;;;20.50;76.52;93909.59;5073361;28;20195;-81
2021/08/19 11:24:55;;;;;;;0.90;0.70;;;;;;;20.22;76.53;93910.81;5073193;28;20203;-79
2021/08/19 11:27:25;;;;;;;0.93;0.57;;;;;;;20.87;76.60;93919.34;5073768;28;20527;-80
2021/08/19 11:29:52;;;;;;;1.45;0.70;;;;;;;20.63;77.17;93914.47;5073817;28;20210;-81
2021/08/19 11:32:26;;;;;;;0.60;0.60;;;;;;;21.18;75.87;93900.81;5073514;28;20665;-81
2021/08/19 11:34:53;;;;;;;1.33;0.88;;;;;;;20.88;74.57;93908.47;5072943;28;20233;-80
2021/08/19 11:37:31;;;;;;;2.42;0.77;;;;;;;20.55;73.43;93907.00;5073617;28;20680;-80
2021/08/19 11:40:03;;;;;;;1.30;0.60;;;;;;;20.44;71.14;93900.03;5073568;28;20655;-81